sensor_id;sensor_type;location;lat;lon;timestamp;P1;durP1;ratioP1;P2;durP2;ratioP2
19358;SDS011;9815;52.334;20.890;2022-08-18T00:01:08;27.70;;;18.67;;
19358;SDS011;9815;52.334;20.890;2022-08-18T00:03:40;29.17;;;18.97;;
19358;SDS011;9815;52.334;20.890;2022-08-18T00:06:25;28.30;;;17.83;;
19358;SDS011;9815;52.334;20.890;2022-08-18T00:08:56;24.70;;;18.43;;
19358;SDS011;9815;52.334;20.890;2022-08-18T00:11:26;28.73;;;19.73;;
19358;SDS011;9815;52.334;20.890;2022-08-18T00:14:08;27.70;;;18.87;;
19358;SDS011;9815;52.334;20.890;2022-08-18T00:16:47;25.17;;;18.60;;
19358;SDS011;9815;52.334;20.890;2022-08-18T00:19:18;27.57;;;17.60;;
19358;SDS011;9815;52.334;20.890;2022-08-18T00:22:10;26.03;;;17.17;;
19358;SDS011;9815;52.334;20.890;2022-08-18T00:24:41;27.63;;;18.13;;
19358;SDS011;9815;52.334;20.890;2022-08-18T00:27:14;28.93;;;17.70;;
19358;SDS011;9815;52.334;20.890;2022-08-18T00:29:49;27.37;;;17.63;;
19358;SDS011;9815;52.334;20.890;2022-08-18T00:32:19;25.43;;;18.33;;
19358;SDS011;9815;52.334;20.890;2022-08-18T00:34:49;35.00;;;19.33;;
19358;SDS011;9815;52.334;20.890;2022-08-18T00:37:19;26.23;;;18.60;;
19358;SDS011;9815;52.334;20.890;2022-08-18T00:39:49;28.87;;;19.43;;
19358;SDS011;9815;52.334;20.890;2022-08-18T00:42:20;26.37;;;18.60;;
19358;SDS011;9815;52.334;20.890;2022-08-18T00:44:56;26.90;;;19.53;;
19358;SDS011;9815;52.334;20.890;2022-08-18T00:47:27;31.60;;;20.40;;
19358;SDS011;9815;52.334;20.890;2022-08-18T00:50:10;25.60;;;18.70;;
19358;SDS011;9815;52.334;20.890;2022-08-18T00:52:44;26.40;;;19.07;;
19358;SDS011;9815;52.334;20.890;2022-08-18T00:55:17;28.50;;;19.83;;
19358;SDS011;9815;52.334;20.890;2022-08-18T00:57:50;26.20;;;18.33;;
19358;SDS011;9815;52.334;20.890;2022-08-18T01:00:21;25.40;;;17.97;;
19358;SDS011;9815;52.334;20.890;2022-08-18T01:02:52;25.60;;;18.60;;
19358;SDS011;9815;52.334;20.890;2022-08-18T01:05:23;28.30;;;18.67;;
19358;SDS011;9815;52.334;20.890;2022-08-18T01:07:57;26.57;;;18.40;;
19358;SDS011;9815;52.334;20.890;2022-08-18T01:10:25;28.83;;;19.40;;
19358;SDS011;9815;52.334;20.890;2022-08-18T01:12:54;25.17;;;17.97;;
19358;SDS011;9815;52.334;20.890;2022-08-18T01:15:24;27.83;;;18.67;;
19358;SDS011;9815;52.334;20.890;2022-08-18T01:17:56;28.40;;;19.63;;
19358;SDS011;9815;52.334;20.890;2022-08-18T01:23:50;27.20;;;19.10;;
19358;SDS011;9815;52.334;20.890;2022-08-18T01:26:20;25.07;;;18.87;;
19358;SDS011;9815;52.334;20.890;2022-08-18T01:28:49;25.50;;;18.70;;
19358;SDS011;9815;52.334;20.890;2022-08-18T01:31:30;29.53;;;18.53;;
19358;SDS011;9815;52.334;20.890;2022-08-18T01:34:04;29.20;;;19.97;;
19358;SDS011;9815;52.334;20.890;2022-08-18T01:36:33;27.33;;;19.50;;
19358;SDS011;9815;52.334;20.890;2022-08-18T01:39:06;26.63;;;19.30;;
19358;SDS011;9815;52.334;20.890;2022-08-18T01:41:36;29.10;;;20.13;;
19358;SDS011;9815;52.334;20.890;2022-08-18T01:44:06;28.80;;;20.63;;
19358;SDS011;9815;52.334;20.890;2022-08-18T01:46:37;30.80;;;20.87;;
19358;SDS011;9815;52.334;20.890;2022-08-18T01:49:08;30.27;;;20.87;;
19358;SDS011;9815;52.334;20.890;2022-08-18T01:51:39;29.53;;;20.27;;
19358;SDS011;9815;52.334;20.890;2022-08-18T01:54:10;28.67;;;20.63;;
19358;SDS011;9815;52.334;20.890;2022-08-18T01:56:41;28.23;;;21.17;;
19358;SDS011;9815;52.334;20.890;2022-08-18T01:59:10;24.90;;;19.23;;
19358;SDS011;9815;52.334;20.890;2022-08-18T02:01:41;31.33;;;20.40;;
19358;SDS011;9815;52.334;20.890;2022-08-18T02:04:19;32.17;;;19.97;;
19358;SDS011;9815;52.334;20.890;2022-08-18T02:07:03;26.70;;;19.57;;
19358;SDS011;9815;52.334;20.890;2022-08-18T02:09:37;29.97;;;19.47;;
19358;SDS011;9815;52.334;20.890;2022-08-18T02:12:06;30.83;;;19.40;;
19358;SDS011;9815;52.334;20.890;2022-08-18T02:14:36;26.73;;;19.60;;
19358;SDS011;9815;52.334;20.890;2022-08-18T02:17:06;26.07;;;19.00;;
19358;SDS011;9815;52.334;20.890;2022-08-18T02:19:39;29.70;;;19.40;;
19358;SDS011;9815;52.334;20.890;2022-08-18T02:22:11;27.87;;;18.93;;
19358;SDS011;9815;52.334;20.890;2022-08-18T02:24:43;27.20;;;18.87;;
19358;SDS011;9815;52.334;20.890;2022-08-18T02:27:12;29.37;;;20.17;;
19358;SDS011;9815;52.334;20.890;2022-08-18T02:29:41;27.17;;;19.60;;
19358;SDS011;9815;52.334;20.890;2022-08-18T02:32:10;26.93;;;19.77;;
19358;SDS011;9815;52.334;20.890;2022-08-18T02:34:38;30.53;;;19.80;;
19358;SDS011;9815;52.334;20.890;2022-08-18T02:37:08;28.87;;;19.73;;
19358;SDS011;9815;52.334;20.890;2022-08-18T02:39:41;28.67;;;19.73;;
19358;SDS011;9815;52.334;20.890;2022-08-18T02:42:13;33.13;;;19.60;;
19358;SDS011;9815;52.334;20.890;2022-08-18T02:44:42;29.13;;;18.93;;
19358;SDS011;9815;52.334;20.890;2022-08-18T02:47:11;30.40;;;19.50;;
19358;SDS011;9815;52.334;20.890;2022-08-18T02:49:40;27.07;;;19.33;;
19358;SDS011;9815;52.334;20.890;2022-08-18T02:52:08;32.00;;;20.50;;
19358;SDS011;9815;52.334;20.890;2022-08-18T02:54:37;27.97;;;20.33;;
19358;SDS011;9815;52.334;20.890;2022-08-18T02:57:08;29.07;;;20.57;;
19358;SDS011;9815;52.334;20.890;2022-08-18T02:59:38;30.70;;;19.97;;
19358;SDS011;9815;52.334;20.890;2022-08-18T03:02:13;28.00;;;20.10;;
19358;SDS011;9815;52.334;20.890;2022-08-18T03:04:41;28.37;;;20.17;;
19358;SDS011;9815;52.334;20.890;2022-08-18T03:07:10;28.73;;;20.20;;
19358;SDS011;9815;52.334;20.890;2022-08-18T03:09:40;30.73;;;21.03;;
19358;SDS011;9815;52.334;20.890;2022-08-18T03:12:10;26.17;;;19.53;;
19358;SDS011;9815;52.334;20.890;2022-08-18T03:14:39;27.87;;;19.93;;
19358;SDS011;9815;52.334;20.890;2022-08-18T03:17:07;29.00;;;20.43;;
19358;SDS011;9815;52.334;20.890;2022-08-18T03:19:36;28.27;;;19.37;;
19358;SDS011;9815;52.334;20.890;2022-08-18T03:22:06;26.90;;;19.60;;
19358;SDS011;9815;52.334;20.890;2022-08-18T03:24:54;28.67;;;19.20;;
19358;SDS011;9815;52.334;20.890;2022-08-18T03:27:25;27.03;;;20.03;;
19358;SDS011;9815;52.334;20.890;2022-08-18T03:29:53;30.23;;;20.73;;
19358;SDS011;9815;52.334;20.890;2022-08-18T03:32:24;31.40;;;19.77;;
19358;SDS011;9815;52.334;20.890;2022-08-18T03:34:53;31.67;;;21.00;;
19358;SDS011;9815;52.334;20.890;2022-08-18T03:37:21;27.17;;;20.10;;
19358;SDS011;9815;52.334;20.890;2022-08-18T03:39:50;28.17;;;19.93;;
19358;SDS011;9815;52.334;20.890;2022-08-18T03:42:19;26.50;;;19.27;;
19358;SDS011;9815;52.334;20.890;2022-08-18T03:44:49;36.67;;;20.57;;
19358;SDS011;9815;52.334;20.890;2022-08-18T03:47:17;26.50;;;19.70;;
19358;SDS011;9815;52.334;20.890;2022-08-18T03:49:46;33.57;;;20.57;;
19358;SDS011;9815;52.334;20.890;2022-08-18T03:52:15;30.57;;;20.97;;
19358;SDS011;9815;52.334;20.890;2022-08-18T03:54:44;33.57;;;22.03;;
19358;SDS011;9815;52.334;20.890;2022-08-18T03:57:12;31.40;;;21.10;;
19358;SDS011;9815;52.334;20.890;2022-08-18T03:59:41;30.63;;;20.97;;
19358;SDS011;9815;52.334;20.890;2022-08-18T04:02:13;35.97;;;22.97;;
19358;SDS011;9815;52.334;20.890;2022-08-18T04:04:41;33.43;;;21.27;;
19358;SDS011;9815;52.334;20.890;2022-08-18T04:07:11;36.47;;;21.50;;
19358;SDS011;9815;52.334;20.890;2022-08-18T04:09:43;29.93;;;20.83;;
19358;SDS011;9815;52.334;20.890;2022-08-18T04:12:13;29.47;;;21.40;;
19358;SDS011;9815;52.334;20.890;2022-08-18T04:14:43;29.50;;;20.80;;
19358;SDS011;9815;52.334;20.890;2022-08-18T04:17:16;30.37;;;21.07;;
19358;SDS011;9815;52.334;20.890;2022-08-18T04:19:49;32.40;;;22.47;;
19358;SDS011;9815;52.334;20.890;2022-08-18T04:22:18;29.77;;;21.77;;
19358;SDS011;9815;52.334;20.890;2022-08-18T04:24:46;31.40;;;22.70;;
19358;SDS011;9815;52.334;20.890;2022-08-18T04:27:16;33.10;;;21.57;;
19358;SDS011;9815;52.334;20.890;2022-08-18T04:29:44;34.10;;;23.10;;
19358;SDS011;9815;52.334;20.890;2022-08-18T04:32:13;30.03;;;20.80;;
19358;SDS011;9815;52.334;20.890;2022-08-18T04:34:43;29.87;;;21.37;;
19358;SDS011;9815;52.334;20.890;2022-08-18T04:37:12;32.57;;;22.03;;
19358;SDS011;9815;52.334;20.890;2022-08-18T04:39:41;31.07;;;21.83;;
19358;SDS011;9815;52.334;20.890;2022-08-18T04:42:11;29.33;;;20.83;;
19358;SDS011;9815;52.334;20.890;2022-08-18T04:44:40;31.80;;;22.50;;
19358;SDS011;9815;52.334;20.890;2022-08-18T04:47:09;33.03;;;22.90;;
19358;SDS011;9815;52.334;20.890;2022-08-18T04:49:38;35.37;;;23.97;;
19358;SDS011;9815;52.334;20.890;2022-08-18T04:52:11;35.90;;;24.80;;
19358;SDS011;9815;52.334;20.890;2022-08-18T04:55:07;32.80;;;23.80;;
19358;SDS011;9815;52.334;20.890;2022-08-18T04:57:37;33.50;;;24.00;;
19358;SDS011;9815;52.334;20.890;2022-08-18T05:00:08;40.93;;;25.37;;
19358;SDS011;9815;52.334;20.890;2022-08-18T05:02:39;38.30;;;26.17;;
19358;SDS011;9815;52.334;20.890;2022-08-18T05:05:08;35.93;;;24.20;;
19358;SDS011;9815;52.334;20.890;2022-08-18T05:07:41;33.67;;;23.47;;
19358;SDS011;9815;52.334;20.890;2022-08-18T05:10:11;32.60;;;22.83;;
19358;SDS011;9815;52.334;20.890;2022-08-18T05:12:45;38.03;;;23.47;;
19358;SDS011;9815;52.334;20.890;2022-08-18T05:15:14;38.73;;;23.43;;
19358;SDS011;9815;52.334;20.890;2022-08-18T05:17:44;35.10;;;22.37;;
19358;SDS011;9815;52.334;20.890;2022-08-18T05:20:16;35.53;;;23.83;;
19358;SDS011;9815;52.334;20.890;2022-08-18T05:22:48;32.50;;;22.43;;
19358;SDS011;9815;52.334;20.890;2022-08-18T05:25:16;35.80;;;21.90;;
19358;SDS011;9815;52.334;20.890;2022-08-18T05:27:44;34.23;;;22.33;;
19358;SDS011;9815;52.334;20.890;2022-08-18T05:30:13;38.03;;;22.30;;
19358;SDS011;9815;52.334;20.890;2022-08-18T05:32:43;37.10;;;21.30;;
19358;SDS011;9815;52.334;20.890;2022-08-18T05:35:17;28.50;;;20.97;;
19358;SDS011;9815;52.334;20.890;2022-08-18T05:40:41;34.27;;;21.60;;
19358;SDS011;9815;52.334;20.890;2022-08-18T05:43:11;33.43;;;22.27;;
19358;SDS011;9815;52.334;20.890;2022-08-18T05:45:41;32.87;;;21.07;;
19358;SDS011;9815;52.334;20.890;2022-08-18T05:48:09;32.47;;;22.93;;
19358;SDS011;9815;52.334;20.890;2022-08-18T05:50:38;34.73;;;23.77;;
19358;SDS011;9815;52.334;20.890;2022-08-18T05:53:07;36.00;;;22.80;;
19358;SDS011;9815;52.334;20.890;2022-08-18T05:55:42;39.63;;;23.80;;
19358;SDS011;9815;52.334;20.890;2022-08-18T05:58:32;34.03;;;22.33;;
19358;SDS011;9815;52.334;20.890;2022-08-18T06:01:10;39.25;;;23.25;;
19358;SDS011;9815;52.334;20.890;2022-08-18T06:03:45;30.38;;;22.48;;
19358;SDS011;9815;52.334;20.890;2022-08-18T06:06:17;40.22;;;22.63;;
19358;SDS011;9815;52.334;20.890;2022-08-18T06:08:51;33.07;;;22.30;;
19358;SDS011;9815;52.334;20.890;2022-08-18T06:11:24;32.63;;;21.63;;
19358;SDS011;9815;52.334;20.890;2022-08-18T06:13:52;31.30;;;20.65;;
19358;SDS011;9815;52.334;20.890;2022-08-18T06:19:24;34.35;;;22.38;;
19358;SDS011;9815;52.334;20.890;2022-08-18T06:22:01;32.60;;;21.77;;
19358;SDS011;9815;52.334;20.890;2022-08-18T06:24:40;32.92;;;21.95;;
19358;SDS011;9815;52.334;20.890;2022-08-18T06:27:18;39.10;;;20.85;;
19358;SDS011;9815;52.334;20.890;2022-08-18T06:30:05;31.63;;;20.52;;
19358;SDS011;9815;52.334;20.890;2022-08-18T06:32:41;31.60;;;20.40;;
19358;SDS011;9815;52.334;20.890;2022-08-18T06:35:29;29.38;;;20.63;;
19358;SDS011;9815;52.334;20.890;2022-08-18T06:41:14;31.38;;;20.40;;
19358;SDS011;9815;52.334;20.890;2022-08-18T06:44:05;31.25;;;19.50;;
19358;SDS011;9815;52.334;20.890;2022-08-18T06:46:37;34.22;;;20.00;;
19358;SDS011;9815;52.334;20.890;2022-08-18T06:49:09;33.83;;;19.52;;
19358;SDS011;9815;52.334;20.890;2022-08-18T06:51:40;27.75;;;17.58;;
19358;SDS011;9815;52.334;20.890;2022-08-18T06:54:24;24.45;;;16.92;;
19358;SDS011;9815;52.334;20.890;2022-08-18T06:56:56;24.70;;;16.17;;
19358;SDS011;9815;52.334;20.890;2022-08-18T06:59:26;25.67;;;17.20;;
19358;SDS011;9815;52.334;20.890;2022-08-18T07:01:56;26.05;;;16.00;;
19358;SDS011;9815;52.334;20.890;2022-08-18T07:04:57;24.77;;;15.35;;
19358;SDS011;9815;52.334;20.890;2022-08-18T07:07:31;29.60;;;14.77;;
19358;SDS011;9815;52.334;20.890;2022-08-18T07:10:07;26.63;;;15.70;;
19358;SDS011;9815;52.334;20.890;2022-08-18T07:13:06;24.85;;;14.43;;
19358;SDS011;9815;52.334;20.890;2022-08-18T07:15:46;33.22;;;15.00;;
19358;SDS011;9815;52.334;20.890;2022-08-18T07:18:20;20.70;;;13.80;;
19358;SDS011;9815;52.334;20.890;2022-08-18T07:20:52;21.85;;;13.95;;
19358;SDS011;9815;52.334;20.890;2022-08-18T07:23:24;21.02;;;12.70;;
19358;SDS011;9815;52.334;20.890;2022-08-18T07:26:02;24.75;;;12.20;;
19358;SDS011;9815;52.334;20.890;2022-08-18T07:28:37;17.88;;;10.80;;
19358;SDS011;9815;52.334;20.890;2022-08-18T07:31:08;17.27;;;11.57;;
19358;SDS011;9815;52.334;20.890;2022-08-18T07:33:47;22.40;;;12.18;;
19358;SDS011;9815;52.334;20.890;2022-08-18T07:36:22;21.55;;;11.60;;
19358;SDS011;9815;52.334;20.890;2022-08-18T07:38:55;20.40;;;9.43;;
19358;SDS011;9815;52.334;20.890;2022-08-18T07:41:30;16.80;;;10.45;;
19358;SDS011;9815;52.334;20.890;2022-08-18T07:44:06;19.13;;;10.48;;
19358;SDS011;9815;52.334;20.890;2022-08-18T07:46:46;18.40;;;11.65;;
19358;SDS011;9815;52.334;20.890;2022-08-18T07:49:21;18.45;;;9.98;;
19358;SDS011;9815;52.334;20.890;2022-08-18T07:51:53;18.67;;;10.10;;
19358;SDS011;9815;52.334;20.890;2022-08-18T07:54:33;16.33;;;9.70;;
19358;SDS011;9815;52.334;20.890;2022-08-18T07:57:20;17.20;;;9.55;;
19358;SDS011;9815;52.334;20.890;2022-08-18T07:59:59;17.55;;;9.15;;
19358;SDS011;9815;52.334;20.890;2022-08-18T08:02:45;14.60;;;9.00;;
19358;SDS011;9815;52.334;20.890;2022-08-18T08:05:32;16.75;;;9.88;;
19358;SDS011;9815;52.334;20.890;2022-08-18T08:08:09;14.82;;;7.93;;
19358;SDS011;9815;52.334;20.890;2022-08-18T08:10:54;12.50;;;8.13;;
19358;SDS011;9815;52.334;20.890;2022-08-18T08:13:33;20.63;;;8.10;;
19358;SDS011;9815;52.334;20.890;2022-08-18T08:16:25;15.60;;;7.95;;
19358;SDS011;9815;52.334;20.890;2022-08-18T08:19:07;20.33;;;7.95;;
19358;SDS011;9815;52.334;20.890;2022-08-18T08:22:07;17.25;;;8.30;;
19358;SDS011;9815;52.334;20.890;2022-08-18T08:24:45;13.63;;;7.95;;
19358;SDS011;9815;52.334;20.890;2022-08-18T08:27:23;14.82;;;8.27;;
19358;SDS011;9815;52.334;20.890;2022-08-18T08:30:04;19.42;;;8.10;;
19358;SDS011;9815;52.334;20.890;2022-08-18T08:32:38;14.02;;;7.55;;
19358;SDS011;9815;52.334;20.890;2022-08-18T08:35:18;18.52;;;7.93;;
19358;SDS011;9815;52.334;20.890;2022-08-18T08:38:14;14.00;;;7.50;;
19358;SDS011;9815;52.334;20.890;2022-08-18T08:41:09;15.18;;;8.35;;
19358;SDS011;9815;52.334;20.890;2022-08-18T08:43:44;12.73;;;8.13;;
19358;SDS011;9815;52.334;20.890;2022-08-18T08:46:18;12.60;;;7.30;;
19358;SDS011;9815;52.334;20.890;2022-08-18T08:48:51;16.33;;;7.80;;
19358;SDS011;9815;52.334;20.890;2022-08-18T08:51:33;13.02;;;7.05;;
19358;SDS011;9815;52.334;20.890;2022-08-18T08:54:08;10.63;;;7.07;;
19358;SDS011;9815;52.334;20.890;2022-08-18T08:56:42;9.68;;;6.80;;
19358;SDS011;9815;52.334;20.890;2022-08-18T08:59:13;10.63;;;6.57;;
19358;SDS011;9815;52.334;20.890;2022-08-18T09:01:45;11.90;;;7.03;;
19358;SDS011;9815;52.334;20.890;2022-08-18T09:04:23;12.20;;;6.68;;
19358;SDS011;9815;52.334;20.890;2022-08-18T09:07:24;11.95;;;6.85;;
19358;SDS011;9815;52.334;20.890;2022-08-18T09:13:10;13.20;;;6.93;;
19358;SDS011;9815;52.334;20.890;2022-08-18T09:18:55;10.65;;;6.55;;
19358;SDS011;9815;52.334;20.890;2022-08-18T09:21:41;12.27;;;6.70;;
19358;SDS011;9815;52.334;20.890;2022-08-18T09:24:18;10.98;;;6.70;;
19358;SDS011;9815;52.334;20.890;2022-08-18T09:26:51;12.55;;;6.38;;
19358;SDS011;9815;52.334;20.890;2022-08-18T09:29:47;10.25;;;6.47;;
19358;SDS011;9815;52.334;20.890;2022-08-18T09:35:52;10.00;;;6.63;;
19358;SDS011;9815;52.334;20.890;2022-08-18T09:38:37;12.43;;;6.15;;
19358;SDS011;9815;52.334;20.890;2022-08-18T09:41:35;10.85;;;7.05;;
19358;SDS011;9815;52.334;20.890;2022-08-18T09:54:04;9.80;;;6.25;;
19358;SDS011;9815;52.334;20.890;2022-08-18T09:59:54;15.85;;;6.28;;
19358;SDS011;9815;52.334;20.890;2022-08-18T10:05:39;9.27;;;5.50;;
19358;SDS011;9815;52.334;20.890;2022-08-18T10:08:33;7.60;;;5.78;;
19358;SDS011;9815;52.334;20.890;2022-08-18T10:12:01;10.98;;;5.75;;
19358;SDS011;9815;52.334;20.890;2022-08-18T10:18:03;11.90;;;5.70;;
19358;SDS011;9815;52.334;20.890;2022-08-18T10:20:58;8.68;;;5.28;;
19358;SDS011;9815;52.334;20.890;2022-08-18T10:23:43;8.98;;;5.10;;
19358;SDS011;9815;52.334;20.890;2022-08-18T10:30:06;9.32;;;5.43;;
19358;SDS011;9815;52.334;20.890;2022-08-18T10:36:38;9.90;;;5.20;;
19358;SDS011;9815;52.334;20.890;2022-08-18T10:39:26;11.05;;;4.72;;
19358;SDS011;9815;52.334;20.890;2022-08-18T10:42:19;8.45;;;4.80;;
19358;SDS011;9815;52.334;20.890;2022-08-18T10:44:59;7.07;;;4.30;;
19358;SDS011;9815;52.334;20.890;2022-08-18T10:47:35;9.38;;;5.45;;
19358;SDS011;9815;52.334;20.890;2022-08-18T10:50:11;7.57;;;5.10;;
19358;SDS011;9815;52.334;20.890;2022-08-18T10:52:51;7.25;;;4.75;;
19358;SDS011;9815;52.334;20.890;2022-08-18T10:55:49;10.82;;;5.07;;
19358;SDS011;9815;52.334;20.890;2022-08-18T11:01:19;8.75;;;5.03;;
19358;SDS011;9815;52.334;20.890;2022-08-18T11:04:06;10.23;;;5.82;;
19358;SDS011;9815;52.334;20.890;2022-08-18T11:07:01;6.30;;;5.03;;
19358;SDS011;9815;52.334;20.890;2022-08-18T11:09:33;9.52;;;5.13;;
19358;SDS011;9815;52.334;20.890;2022-08-18T11:12:07;7.97;;;5.25;;
19358;SDS011;9815;52.334;20.890;2022-08-18T11:17:53;6.35;;;4.78;;
19358;SDS011;9815;52.334;20.890;2022-08-18T11:20:35;7.93;;;4.80;;
19358;SDS011;9815;52.334;20.890;2022-08-18T11:23:11;8.20;;;4.93;;
19358;SDS011;9815;52.334;20.890;2022-08-18T11:25:42;8.57;;;4.50;;
19358;SDS011;9815;52.334;20.890;2022-08-18T11:28:14;7.40;;;5.03;;
19358;SDS011;9815;52.334;20.890;2022-08-18T11:30:46;6.43;;;4.85;;
19358;SDS011;9815;52.334;20.890;2022-08-18T11:33:18;9.55;;;4.85;;
19358;SDS011;9815;52.334;20.890;2022-08-18T11:35:50;6.95;;;4.93;;
19358;SDS011;9815;52.334;20.890;2022-08-18T11:38:23;10.88;;;4.43;;
19358;SDS011;9815;52.334;20.890;2022-08-18T11:41:08;7.40;;;4.85;;
19358;SDS011;9815;52.334;20.890;2022-08-18T11:43:39;6.68;;;4.13;;
19358;SDS011;9815;52.334;20.890;2022-08-18T11:46:22;5.80;;;4.05;;
19358;SDS011;9815;52.334;20.890;2022-08-18T11:48:57;6.05;;;4.00;;
19358;SDS011;9815;52.334;20.890;2022-08-18T11:51:27;6.55;;;4.00;;
19358;SDS011;9815;52.334;20.890;2022-08-18T11:53:58;6.72;;;4.22;;
19358;SDS011;9815;52.334;20.890;2022-08-18T11:56:29;7.70;;;4.15;;
19358;SDS011;9815;52.334;20.890;2022-08-18T11:59:04;8.55;;;3.75;;
19358;SDS011;9815;52.334;20.890;2022-08-18T12:01:39;9.68;;;4.10;;
19358;SDS011;9815;52.334;20.890;2022-08-18T12:04:35;7.40;;;4.15;;
19358;SDS011;9815;52.334;20.890;2022-08-18T12:07:08;9.15;;;4.38;;
19358;SDS011;9815;52.334;20.890;2022-08-18T12:09:47;9.07;;;4.45;;
19358;SDS011;9815;52.334;20.890;2022-08-18T12:12:44;9.02;;;4.05;;
19358;SDS011;9815;52.334;20.890;2022-08-18T12:15:24;6.15;;;4.03;;
19358;SDS011;9815;52.334;20.890;2022-08-18T12:18:14;8.35;;;4.05;;
19358;SDS011;9815;52.334;20.890;2022-08-18T12:20:55;5.25;;;3.60;;
19358;SDS011;9815;52.334;20.890;2022-08-18T12:23:24;7.53;;;4.03;;
19358;SDS011;9815;52.334;20.890;2022-08-18T12:26:14;8.48;;;3.90;;
19358;SDS011;9815;52.334;20.890;2022-08-18T12:29:08;9.82;;;6.38;;
19358;SDS011;9815;52.334;20.890;2022-08-18T12:31:37;5.47;;;3.78;;
19358;SDS011;9815;52.334;20.890;2022-08-18T12:34:15;5.55;;;3.80;;
19358;SDS011;9815;52.334;20.890;2022-08-18T12:36:54;6.05;;;3.53;;
19358;SDS011;9815;52.334;20.890;2022-08-18T12:39:23;5.80;;;3.90;;
19358;SDS011;9815;52.334;20.890;2022-08-18T12:41:52;9.02;;;4.32;;
19358;SDS011;9815;52.334;20.890;2022-08-18T12:44:20;7.35;;;4.15;;
19358;SDS011;9815;52.334;20.890;2022-08-18T12:46:52;9.43;;;4.28;;
19358;SDS011;9815;52.334;20.890;2022-08-18T12:49:26;7.40;;;4.20;;
19358;SDS011;9815;52.334;20.890;2022-08-18T12:51:55;5.88;;;4.15;;
19358;SDS011;9815;52.334;20.890;2022-08-18T12:54:23;9.82;;;4.13;;
19358;SDS011;9815;52.334;20.890;2022-08-18T12:56:52;6.32;;;4.03;;
19358;SDS011;9815;52.334;20.890;2022-08-18T12:59:23;7.80;;;4.45;;
19358;SDS011;9815;52.334;20.890;2022-08-18T13:02:04;4.53;;;3.72;;
19358;SDS011;9815;52.334;20.890;2022-08-18T13:04:37;7.20;;;4.20;;
19358;SDS011;9815;52.334;20.890;2022-08-18T13:07:06;7.03;;;4.35;;
19358;SDS011;9815;52.334;20.890;2022-08-18T13:09:35;5.72;;;3.97;;
19358;SDS011;9815;52.334;20.890;2022-08-18T13:12:19;5.53;;;4.30;;
19358;SDS011;9815;52.334;20.890;2022-08-18T13:14:49;5.93;;;4.22;;
19358;SDS011;9815;52.334;20.890;2022-08-18T13:17:20;9.35;;;4.57;;
19358;SDS011;9815;52.334;20.890;2022-08-18T13:20:00;6.97;;;4.28;;
19358;SDS011;9815;52.334;20.890;2022-08-18T13:22:30;6.65;;;4.43;;
19358;SDS011;9815;52.334;20.890;2022-08-18T13:24:59;7.65;;;4.40;;
19358;SDS011;9815;52.334;20.890;2022-08-18T13:27:29;10.63;;;5.20;;
19358;SDS011;9815;52.334;20.890;2022-08-18T13:30:01;11.18;;;5.22;;
19358;SDS011;9815;52.334;20.890;2022-08-18T13:32:51;8.18;;;4.38;;
19358;SDS011;9815;52.334;20.890;2022-08-18T13:35:26;6.53;;;4.57;;
19358;SDS011;9815;52.334;20.890;2022-08-18T13:38:04;20.65;;;6.63;;
19358;SDS011;9815;52.334;20.890;2022-08-18T13:40:44;13.23;;;5.15;;
19358;SDS011;9815;52.334;20.890;2022-08-18T13:43:14;7.38;;;4.20;;
19358;SDS011;9815;52.334;20.890;2022-08-18T13:45:44;8.48;;;4.80;;
19358;SDS011;9815;52.334;20.890;2022-08-18T13:48:18;8.98;;;4.20;;
19358;SDS011;9815;52.334;20.890;2022-08-18T13:50:50;6.78;;;4.20;;
19358;SDS011;9815;52.334;20.890;2022-08-18T13:53:21;9.35;;;4.07;;
19358;SDS011;9815;52.334;20.890;2022-08-18T13:55:52;6.95;;;4.63;;
19358;SDS011;9815;52.334;20.890;2022-08-18T13:58:24;8.18;;;4.43;;
19358;SDS011;9815;52.334;20.890;2022-08-18T14:00:55;12.27;;;4.53;;
19358;SDS011;9815;52.334;20.890;2022-08-18T14:03:45;9.57;;;4.05;;
19358;SDS011;9815;52.334;20.890;2022-08-18T14:06:16;11.70;;;4.55;;
19358;SDS011;9815;52.334;20.890;2022-08-18T14:08:49;8.02;;;4.50;;
19358;SDS011;9815;52.334;20.890;2022-08-18T14:11:19;7.70;;;4.50;;
19358;SDS011;9815;52.334;20.890;2022-08-18T14:13:53;7.25;;;4.50;;
19358;SDS011;9815;52.334;20.890;2022-08-18T14:16:22;8.38;;;4.28;;
19358;SDS011;9815;52.334;20.890;2022-08-18T14:18:52;9.85;;;5.00;;
19358;SDS011;9815;52.334;20.890;2022-08-18T14:21:41;9.23;;;4.97;;
19358;SDS011;9815;52.334;20.890;2022-08-18T14:24:28;7.45;;;4.85;;
19358;SDS011;9815;52.334;20.890;2022-08-18T14:27:15;10.18;;;4.82;;
19358;SDS011;9815;52.334;20.890;2022-08-18T14:29:44;6.78;;;4.50;;
19358;SDS011;9815;52.334;20.890;2022-08-18T14:32:15;9.32;;;5.05;;
19358;SDS011;9815;52.334;20.890;2022-08-18T14:34:55;9.30;;;4.93;;
19358;SDS011;9815;52.334;20.890;2022-08-18T14:37:45;7.97;;;5.10;;
19358;SDS011;9815;52.334;20.890;2022-08-18T14:40:14;8.27;;;4.70;;
19358;SDS011;9815;52.334;20.890;2022-08-18T14:42:46;9.15;;;4.70;;
19358;SDS011;9815;52.334;20.890;2022-08-18T14:45:20;9.30;;;4.85;;
19358;SDS011;9815;52.334;20.890;2022-08-18T14:48:00;6.82;;;5.22;;
19358;SDS011;9815;52.334;20.890;2022-08-18T14:50:36;8.52;;;4.97;;
19358;SDS011;9815;52.334;20.890;2022-08-18T14:53:11;5.57;;;4.47;;
19358;SDS011;9815;52.334;20.890;2022-08-18T14:55:40;8.75;;;5.40;;
19358;SDS011;9815;52.334;20.890;2022-08-18T14:58:14;7.93;;;4.95;;
19358;SDS011;9815;52.334;20.890;2022-08-18T15:00:46;7.47;;;4.72;;
19358;SDS011;9815;52.334;20.890;2022-08-18T15:03:19;8.15;;;5.00;;
19358;SDS011;9815;52.334;20.890;2022-08-18T15:05:57;7.13;;;4.95;;
19358;SDS011;9815;52.334;20.890;2022-08-18T15:08:31;10.30;;;5.32;;
19358;SDS011;9815;52.334;20.890;2022-08-18T15:11:01;9.77;;;5.50;;
19358;SDS011;9815;52.334;20.890;2022-08-18T15:13:37;9.48;;;4.88;;
19358;SDS011;9815;52.334;20.890;2022-08-18T15:16:07;8.30;;;5.05;;
19358;SDS011;9815;52.334;20.890;2022-08-18T15:18:38;6.90;;;4.93;;
19358;SDS011;9815;52.334;20.890;2022-08-18T15:21:07;8.82;;;4.72;;
19358;SDS011;9815;52.334;20.890;2022-08-18T15:24:05;9.80;;;4.90;;
19358;SDS011;9815;52.334;20.890;2022-08-18T15:26:52;10.00;;;5.22;;
19358;SDS011;9815;52.334;20.890;2022-08-18T15:29:24;8.40;;;5.13;;
19358;SDS011;9815;52.334;20.890;2022-08-18T15:31:55;8.38;;;5.53;;
19358;SDS011;9815;52.334;20.890;2022-08-18T15:34:31;8.23;;;4.95;;
19358;SDS011;9815;52.334;20.890;2022-08-18T15:37:16;9.35;;;5.30;;
19358;SDS011;9815;52.334;20.890;2022-08-18T15:39:57;6.85;;;4.45;;
19358;SDS011;9815;52.334;20.890;2022-08-18T15:42:30;10.82;;;5.15;;
19358;SDS011;9815;52.334;20.890;2022-08-18T15:44:59;10.60;;;5.25;;
19358;SDS011;9815;52.334;20.890;2022-08-18T15:47:39;7.47;;;4.82;;
19358;SDS011;9815;52.334;20.890;2022-08-18T15:50:08;7.05;;;4.80;;
19358;SDS011;9815;52.334;20.890;2022-08-18T15:52:51;9.40;;;4.97;;
19358;SDS011;9815;52.334;20.890;2022-08-18T15:55:23;10.00;;;4.80;;
19358;SDS011;9815;52.334;20.890;2022-08-18T15:57:53;10.15;;;5.13;;
19358;SDS011;9815;52.334;20.890;2022-08-18T16:00:24;7.47;;;5.47;;
19358;SDS011;9815;52.334;20.890;2022-08-18T16:02:56;12.68;;;5.35;;
19358;SDS011;9815;52.334;20.890;2022-08-18T16:05:27;8.80;;;4.57;;
19358;SDS011;9815;52.334;20.890;2022-08-18T16:07:58;9.65;;;5.07;;
19358;SDS011;9815;52.334;20.890;2022-08-18T16:10:29;9.35;;;4.65;;
19358;SDS011;9815;52.334;20.890;2022-08-18T16:12:59;9.93;;;5.28;;
19358;SDS011;9815;52.334;20.890;2022-08-18T16:15:32;8.95;;;4.90;;